Time;durP1;ratioP1;P1;durP2;ratioP2;P2;SDS_P1;SDS_P2;PMS_P1;PMS_P2;Temp;Humidity;BMP_temperature;BMP_pressure;BME280_temperature;BME280_humidity;BME280_pressure;Samples;Min_cycle;Max_cycle;Signal;HPM_P1;HPM_P2
2023/09/29 00:02:29;;;;;;;;;;;;;;;14.88;100.00;96048.91;10524770;28;1897;-76
2023/09/29 00:07:31;;;;;;;;;;;;;;;14.84;100.00;96034.38;10515592;28;2044;-77
2023/09/29 00:12:34;;;;;;;;;;;;;;;14.85;100.00;96036.78;10514956;28;1957;-76
2023/09/29 00:17:36;;;;;;;;;;;;;;;14.88;100.00;96043.50;10510263;28;1897;-77
2023/09/29 00:22:39;;;;;;;;;;;;;;;14.83;100.00;96043.59;10508134;28;2647;-76
2023/09/29 00:27:41;;;;;;;;;;;;;;;14.84;100.00;96042.50;10515194;28;1974;-76
2023/09/29 00:32:45;;;;;;;;;;;;;;;14.72;100.00;96055.66;10522714;28;1931;-75
2023/09/29 00:37:48;;;;;;;;;;;;;;;14.80;100.00;96052.28;10521899;28;1935;-77
2023/09/29 00:42:51;;;;;;;;;;;;;;;14.68;100.00;96060.03;10518669;28;4661;-77
2023/09/29 00:47:55;;;;;;;;;;;;;;;14.68;100.00;96046.50;10513254;28;2019;-78
2023/09/29 00:52:59;;;;;;;;;;;;;;;14.52;100.00;96049.44;10507781;28;1967;-78
2023/09/29 00:58:02;;;;;;;;;;;;;;;14.38;100.00;96043.13;10510499;28;1984;-77
2023/09/29 01:03:05;;;;;;;;;;;;;;;14.48;100.00;96048.41;10516084;28;1968;-76
2023/09/29 01:08:09;;;;;;;;;;;;;;;14.47;100.00;96044.09;10518449;28;2906;-76
2023/09/29 01:13:12;;;;;;;;;;;;;;;14.46;100.00;96041.66;10514647;28;1956;-76
2023/09/29 01:18:16;;;;;;;;;;;;;;;14.40;100.00;96038.22;10511907;28;1969;-75
2023/09/29 01:23:20;;;;;;;;;;;;;;;14.27;100.00;96047.03;10513546;28;2008;-74
2023/09/29 01:28:22;;;;;;;;;;;;;;;14.36;100.00;96045.28;10514502;28;1997;-77
2023/09/29 01:33:25;;;;;;;;;;;;;;;14.33;100.00;96041.28;10519168;28;1959;-75
2023/09/29 01:38:28;;;;;;;;;;;;;;;14.28;100.00;96045.94;10511642;28;1910;-76
2023/09/29 01:43:31;;;;;;;;;;;;;;;14.14;100.00;96037.75;10516431;28;4682;-76
2023/09/29 01:48:33;;;;;;;;;;;;;;;14.22;100.00;96044.41;10508264;28;1991;-75
2023/09/29 01:53:36;;;;;;;;;;;;;;;14.12;100.00;96039.09;10490769;28;2016;-75
2023/09/29 01:58:40;;;;;;;;;;;;;;;14.10;100.00;96031.28;10521066;28;1932;-74
2023/09/29 02:03:44;;;;;;;;;;;;;;;14.16;100.00;96029.34;10511381;28;2002;-74
2023/09/29 02:08:46;;;;;;;;;;;;;;;14.17;100.00;96028.22;10504939;28;2755;-78
2023/09/29 02:13:49;;;;;;;;;;;;;;;14.22;100.00;96033.59;10522341;28;1897;-77
2023/09/29 02:18:51;;;;;;;;;;;;;;;14.19;100.00;96026.88;10514809;28;2007;-76
2023/09/29 02:23:55;;;;;;;;;;;;;;;14.06;100.00;96031.09;10508637;28;1988;-78
2023/09/29 02:28:57;;;;;;;;;;;;;;;14.11;100.00;96037.50;10511881;28;1936;-76
2023/09/29 02:34:00;;;;;;;;;;;;;;;13.96;100.00;96044.72;10510735;28;2030;-74
2023/09/29 02:39:04;;;;;;;;;;;;;;;13.79;100.00;96055.16;10512224;28;1990;-75
2023/09/29 02:44:07;;;;;;;;;;;;;;;13.80;100.00;96059.47;10505026;28;4669;-77
2023/09/29 02:49:09;;;;;;;;;;;;;;;14.00;100.00;96053.84;10505674;28;2289;-77
2023/09/29 02:54:11;;;;;;;;;;;;;;;13.86;100.00;96049.41;10509383;28;2613;-76
2023/09/29 02:59:15;;;;;;;;;;;;;;;13.91;100.00;96049.38;10503353;28;1990;-75
2023/09/29 03:04:17;;;;;;;;;;;;;;;13.73;100.00;96049.00;10513462;28;1959;-75
2023/09/29 03:09:20;;;;;;;;;;;;;;;13.62;100.00;96062.94;10509778;28;1915;-76
2023/09/29 03:14:23;;;;;;;;;;;;;;;13.57;100.00;96062.97;10518400;28;1873;-73
2023/09/29 03:19:25;;;;;;;;;;;;;;;13.49;100.00;96062.50;10514309;28;1876;-75
2023/09/29 03:24:28;;;;;;;;;;;;;;;13.46;100.00;96060.34;10506885;28;1900;-75
2023/09/29 03:29:34;;;;;;;;;;;;;;;13.52;100.00;96064.63;10515257;28;1981;-77
2023/09/29 03:34:37;;;;;;;;;;;;;;;13.57;100.00;96054.88;10494116;28;1994;-75
2023/09/29 03:39:39;;;;;;;;;;;;;;;13.58;100.00;96059.19;10506385;28;1937;-76
2023/09/29 03:44:43;;;;;;;;;;;;;;;13.62;100.00;96058.31;10516890;28;4689;-77
2023/09/29 03:49:46;;;;;;;;;;;;;;;13.68;100.00;96061.78;10515834;28;1950;-76
2023/09/29 03:54:48;;;;;;;;;;;;;;;13.62;100.00;96054.81;10513115;28;2379;-76
2023/09/29 03:59:52;;;;;;;;;;;;;;;13.59;100.00;96052.69;10510457;28;2039;-76
2023/09/29 04:04:54;;;;;;;;;;;;;;;13.50;100.00;96056.00;10517437;28;1999;-76
2023/09/29 04:10:01;;;;;;;;;;;;;;;13.62;100.00;96055.63;10511657;28;1999;-77
2023/09/29 04:15:04;;;;;;;;;;;;;;;13.56;100.00;96054.06;10517684;28;2006;-74
2023/09/29 04:20:06;;;;;;;;;;;;;;;13.47;100.00;96056.56;10513120;28;1986;-76
2023/09/29 04:25:09;;;;;;;;;;;;;;;13.59;100.00;96060.78;10514210;28;2129;-74
2023/09/29 04:30:12;;;;;;;;;;;;;;;13.63;100.00;96067.22;10516872;28;1980;-75
2023/09/29 04:35:15;;;;;;;;;;;;;;;13.65;100.00;96065.84;10519156;28;1908;-76
2023/09/29 04:40:18;;;;;;;;;;;;;;;13.60;100.00;96065.88;10498743;28;4607;-77
2023/09/29 04:45:20;;;;;;;;;;;;;;;13.48;100.00;96074.38;10522564;28;1846;-76
2023/09/29 04:50:22;;;;;;;;;;;;;;;13.35;100.00;96075.03;10517671;28;1955;-74
2023/09/29 04:55:27;;;;;;;;;;;;;;;13.43;100.00;96073.63;10516291;28;1936;-76
2023/09/29 05:00:29;;;;;;;;;;;;;;;13.43;100.00;96079.03;10511915;28;1959;-75
2023/09/29 05:05:31;;;;;;;;;;;;;;;13.44;100.00;96073.34;10514224;28;1971;-78
2023/09/29 05:10:34;;;;;;;;;;;;;;;13.45;100.00;96074.16;10522272;28;2005;-75
2023/09/29 05:15:36;;;;;;;;;;;;;;;13.41;100.00;96084.69;10514652;28;1921;-75
2023/09/29 05:20:39;;;;;;;;;;;;;;;13.44;100.00;96084.16;10516236;28;2360;-75
2023/09/29 05:25:41;;;;;;;;;;;;;;;13.46;100.00;96084.66;10511782;28;2483;-73
2023/09/29 05:30:44;;;;;;;;;;;;;;;13.52;100.00;96085.41;10511169;28;1963;-75
2023/09/29 05:35:47;;;;;;;;;;;;;;;13.61;100.00;96088.31;10507475;28;1983;-76
2023/09/29 05:40:49;;;;;;;;;;;;;;;13.56;100.00;96091.88;10510014;28;4571;-75
2023/09/29 05:45:51;;;;;;;;;;;;;;;13.59;100.00;96099.41;10515362;28;2127;-76
2023/09/29 05:50:54;;;;;;;;;;;;;;;13.50;100.00;96110.03;10518627;28;1983;-77
2023/09/29 05:55:56;;;;;;;;;;;;;;;13.60;100.00;96102.91;10508980;28;1976;-76
2023/09/29 06:00:59;;;;;;;;;;;;;;;13.57;100.00;96115.09;10515798;28;1979;-75
2023/09/29 06:06:01;;;;;;;;;;;;;;;13.75;100.00;96113.59;10521903;28;2293;-79
2023/09/29 06:11:04;;;;;;;;;;;;;;;13.97;100.00;96124.69;10519435;28;2474;-78
2023/09/29 06:16:06;;;;;;;;;;;;;;;13.96;100.00;96119.56;10521126;28;1946;-76
2023/09/29 06:21:09;;;;;;;;;;;;;;;14.19;100.00;96131.50;10518924;28;1907;-75
2023/09/29 06:26:11;;;;;;;;;;;;;;;14.24;100.00;96126.00;10519942;28;2106;-84
2023/09/29 06:31:14;;;;;;;;;;;;;;;14.38;100.00;96118.84;10518590;28;1963;-77
2023/09/29 06:36:16;;;;;;;;;;;;;;;14.55;100.00;96119.19;10525852;28;2162;-81
2023/09/29 06:41:19;;;;;;;;;;;;;;;14.61;100.00;96117.22;10515947;28;1948;-84
2023/09/29 06:46:21;;;;;;;;;;;;;;;14.64;100.00;96122.06;10526173;28;1908;-80
2023/09/29 06:51:24;;;;;;;;;;;;;;;14.84;100.00;96120.97;10509897;28;1976;-75
2023/09/29 06:56:26;;;;;;;;;;;;;;;15.04;100.00;96126.09;10518245;28;2557;-76
2023/09/29 07:01:29;;;;;;;;;;;;;;;15.25;100.00;96134.72;10512231;28;2019;-78
2023/09/29 07:06:31;;;;;;;;;;;;;;;15.45;100.00;96136.28;10508391;28;1979;-76
2023/09/29 07:11:34;;;;;;;;;;;;;;;15.52;100.00;96147.56;10507952;28;1987;-78
2023/09/29 07:16:38;;;;;;;;;;;;;;;15.60;100.00;96152.31;10512234;28;1877;-84
2023/09/29 07:21:41;;;;;;;;;;;;;;;15.86;100.00;96157.34;10509898;28;1913;-78
2023/09/29 07:26:43;;;;;;;;;;;;;;;15.96;100.00;96157.16;10501375;28;2059;-80
2023/09/29 07:31:47;;;;;;;;;;;;;;;16.16;100.00;96156.00;10512082;28;1910;-79
2023/09/29 07:36:49;;;;;;;;;;;;;;;16.34;100.00;96151.56;10509489;28;1879;-77
2023/09/29 07:41:52;;;;;;;;;;;;;;;16.57;100.00;96153.28;10522418;28;4686;-76
2023/09/29 07:46:55;;;;;;;;;;;;;;;16.83;100.00;96148.16;10516765;28;1775;-75
2023/09/29 07:51:58;;;;;;;;;;;;;;;17.06;100.00;96143.59;10529876;28;1963;-80
2023/09/29 07:57:00;;;;;;;;;;;;;;;17.43;100.00;96160.69;10526245;28;1714;-78
2023/09/29 08:02:03;;;;;;;;;;;;;;;17.61;100.00;96156.97;10527104;28;1858;-79
2023/09/29 08:07:06;;;;;;;;;;;;;;;17.97;100.00;96156.94;10527472;28;2012;-75
2023/09/29 08:12:09;;;;;;;;;;;;;;;18.08;100.00;96152.03;10526885;28;1930;-75
2023/09/29 08:17:11;;;;;;;;;;;;;;;18.34;100.00;96163.84;10526498;28;1912;-75
2023/09/29 08:22:13;;;;;;;;;;;;;;;18.56;100.00;96154.81;10518926;28;1848;-77
2023/09/29 08:27:31;;;;;;;;;;;;;;;18.83;100.00;96159.25;10524738;28;1893;-77
2023/09/29 08:32:33;;;;;;;;;;;;;;;19.08;100.00;96173.22;10518429;28;1906;-72
2023/09/29 08:37:36;;;;;;;;;;;;;;;19.37;100.00;96164.44;10516788;28;1818;-72
2023/09/29 08:42:39;;;;;;;;;;;;;;;19.51;100.00;96177.91;10507963;28;1854;-71
2023/09/29 08:47:42;;;;;;;;;;;;;;;19.68;100.00;96177.97;10515841;28;1889;-72
2023/09/29 08:52:45;;;;;;;;;;;;;;;19.95;100.00;96172.13;10513314;28;1934;-72
2023/09/29 08:57:47;;;;;;;;;;;;;;;20.21;100.00;96172.06;10519257;28;1893;-72
2023/09/29 09:02:50;;;;;;;;;;;;;;;20.17;100.00;96178.53;10511987;28;1930;-72
2023/09/29 09:07:53;;;;;;;;;;;;;;;20.38;100.00;96182.16;10509702;28;2848;-74
2023/09/29 09:12:56;;;;;;;;;;;;;;;20.64;100.00;96175.81;10507059;28;1922;-72
2023/09/29 09:17:58;;;;;;;;;;;;;;;20.78;100.00;96168.19;10515572;28;1870;-72
2023/09/29 09:23:01;;;;;;;;;;;;;;;20.93;100.00;96158.63;10511440;28;1877;-73
2023/09/29 09:28:03;;;;;;;;;;;;;;;21.00;100.00;96159.72;10515744;28;1994;-72
2023/09/29 09:33:06;;;;;;;;;;;;;;;21.19;100.00;96161.22;10513061;28;1841;-71
2023/09/29 09:38:09;;;;;;;;;;;;;;;21.29;100.00;96155.38;10526384;28;1977;-75
2023/09/29 09:43:11;;;;;;;;;;;;;;;21.40;100.00;96144.84;10510852;28;4579;-75
2023/09/29 09:48:18;;;;;;;;;;;;;;;21.43;100.00;96142.22;10513748;28;1945;-71
2023/09/29 09:53:20;;;;;;;;;;;;;;;21.55;100.00;96150.50;10508092;28;3201;-71
2023/09/29 09:58:23;;;;;;;;;;;;;;;21.66;100.00;96150.09;10515272;28;1889;-71
2023/09/29 10:03:26;;;;;;;;;;;;;;;21.85;100.00;96153.94;10510567;28;1935;-71
2023/09/29 10:08:30;;;;;;;;;;;;;;;21.78;100.00;96153.69;10509367;28;1972;-72
2023/09/29 10:13:34;;;;;;;;;;;;;;;21.88;100.00;96155.19;10509643;28;1885;-71
2023/09/29 10:18:36;;;;;;;;;;;;;;;22.08;100.00;96140.69;10510238;28;1977;-73
2023/09/29 10:23:39;;;;;;;;;;;;;;;22.31;100.00;96132.06;10504932;28;1941;-71
2023/09/29 10:28:41;;;;;;;;;;;;;;;22.24;100.00;96127.16;10514984;28;1906;-74
2023/09/29 10:33:44;;;;;;;;;;;;;;;22.51;100.00;96130.38;10509696;28;1896;-70
2023/09/29 10:38:47;;;;;;;;;;;;;;;22.59;100.00;96113.84;10506801;28;1865;-71
2023/09/29 10:43:50;;;;;;;;;;;;;;;22.70;100.00;96113.38;10509871;28;4610;-70
2023/09/29 10:48:52;;;;;;;;;;;;;;;22.86;100.00;96106.88;10510440;28;2014;-70
2023/09/29 10:53:56;;;;;;;;;;;;;;;22.73;100.00;96116.22;10514012;28;2712;-74
2023/09/29 10:58:59;;;;;;;;;;;;;;;22.99;100.00;96106.88;10513551;28;2107;-75
2023/09/29 11:04:02;;;;;;;;;;;;;;;23.08;96.42;96105.59;10516992;28;1845;-71
2023/09/29 11:09:06;;;;;;;;;;;;;;;23.10;97.09;96102.53;10494468;28;2039;-75
2023/09/29 11:14:09;;;;;;;;;;;;;;;23.17;98.49;96100.78;10521234;28;1896;-73
2023/09/29 11:19:12;;;;;;;;;;;;;;;23.36;100.00;96091.13;10521821;28;1926;-72
2023/09/29 11:24:18;;;;;;;;;;;;;;;23.63;94.78;96071.16;10521780;28;1916;-76
2023/09/29 11:29:22;;;;;;;;;;;;;;;24.02;98.08;96068.66;10522069;28;1971;-69
2023/09/29 11:34:28;;;;;;;;;;;;;;;23.75;96.83;96072.25;10526776;28;1905;-70
2023/09/29 11:39:31;;;;;;;;;;;;;;;23.72;91.83;96068.25;10523351;28;2650;-71
2023/09/29 11:44:35;;;;;;;;;;;;;;;23.93;90.25;96062.53;10521666;28;1881;-70
2023/09/29 11:49:38;;;;;;;;;;;;;;;23.51;97.68;96076.66;10522062;28;1885;-71
2023/09/29 11:54:41;;;;;;;;;;;;;;;23.34;100.00;96066.78;10515364;28;1833;-71
2023/09/29 11:59:44;;;;;;;;;;;;;;;23.52;92.85;96061.78;10520696;28;1908;-72
2023/09/29 12:04:47;;;;;;;;;;;;;;;23.48;95.69;96058.16;10514742;28;1818;-71
2023/09/29 12:09:50;;;;;;;;;;;;;;;23.62;92.69;96052.31;10512541;28;1970;-72
2023/09/29 12:14:53;;;;;;;;;;;;;;;23.42;90.07;96040.38;10503973;28;1874;-71
2023/09/29 12:19:55;;;;;;;;;;;;;;;23.84;87.09;96046.22;10506702;28;1931;-72
2023/09/29 12:24:58;;;;;;;;;;;;;;;24.00;82.51;96046.25;10511594;28;1887;-75
2023/09/29 12:30:01;;;;;;;;;;;;;;;23.98;80.56;96043.88;10511792;28;1930;-75
2023/09/29 12:35:04;;;;;;;;;;;;;;;24.07;78.55;96040.13;10519677;28;1834;-75
2023/09/29 12:40:09;;;;;;;;;;;;;;;24.07;82.03;96032.69;10513861;28;4607;-76
2023/09/29 12:45:11;;;;;;;;;;;;;;;24.12;81.90;96037.13;10517891;28;1841;-75
2023/09/29 12:50:14;;;;;;;;;;;;;;;24.20;80.06;96027.91;10512816;28;1908;-76
2023/09/29 12:55:18;;;;;;;;;;;;;;;24.15;81.06;96026.22;10519544;28;1971;-76
2023/09/29 13:00:22;;;;;;;;;;;;;;;23.96;86.83;96026.13;10523685;28;1834;-76
2023/09/29 13:05:26;;;;;;;;;;;;;;;23.92;90.15;96012.34;10519053;28;1999;-76
2023/09/29 13:10:28;;;;;;;;;;;;;;;24.14;85.52;96024.63;10520840;28;1933;-76
2023/09/29 13:15:31;;;;;;;;;;;;;;;24.25;86.80;96020.22;10516510;28;1837;-77
2023/09/29 13:20:34;;;;;;;;;;;;;;;24.48;85.35;96023.13;10525877;28;1869;-76
2023/09/29 13:25:36;;;;;;;;;;;;;;;24.52;86.18;96015.75;10514277;28;2519;-75
2023/09/29 13:30:39;;;;;;;;;;;;;;;24.77;85.12;96008.09;10526716;28;1910;-75
2023/09/29 13:35:55;;;;;;;;;;;;;;;24.91;83.80;95993.84;10509824;28;1921;-76
2023/09/29 13:40:58;;;;;;;;;;;;;;;24.94;82.75;95997.81;10495129;28;4642;-75
2023/09/29 13:46:01;;;;;;;;;;;;;;;24.88;75.43;96002.81;10480572;28;1941;-75
2023/09/29 13:51:03;;;;;;;;;;;;;;;24.91;78.79;96001.28;10478898;28;1986;-76
2023/09/29 13:56:06;;;;;;;;;;;;;;;25.14;77.71;95990.41;10461090;28;2124;-75
2023/09/29 14:01:08;;;;;;;;;;;;;;;25.34;74.00;95987.28;10485448;28;1899;-77
2023/09/29 14:06:11;;;;;;;;;;;;;;;25.68;74.85;95983.97;10477495;28;1823;-75
2023/09/29 14:11:14;;;;;;;;;;;;;;;25.61;75.75;95974.41;10476773;28;2501;-75
2023/09/29 14:16:16;;;;;;;;;;;;;;;25.30;76.85;95969.91;10480297;28;1890;-75
2023/09/29 14:21:18;;;;;;;;;;;;;;;25.06;78.12;95964.69;10486069;28;1820;-75
2023/09/29 14:26:21;;;;;;;;;;;;;;;24.75;82.44;95955.44;10480347;28;1916;-75
2023/09/29 14:31:24;;;;;;;;;;;;;;;24.82;80.18;95963.03;10485271;28;1906;-79
2023/09/29 14:36:26;;;;;;;;;;;;;;;24.79;83.65;95958.22;10471899;28;1932;-78
2023/09/29 14:41:29;;;;;;;;;;;;;;;24.68;84.92;95954.44;10513603;28;1895;-77
2023/09/29 14:46:31;;;;;;;;;;;;;;;24.62;84.71;95967.69;10514345;28;1838;-79
2023/09/29 14:51:39;;;;;;;;;;;;;;;24.68;80.85;95963.50;10526100;28;1973;-78
2023/09/29 14:56:41;;;;;;;;;;;;;;;24.63;83.21;95958.31;10531475;28;1892;-76
2023/09/29 15:01:44;;;;;;;;;;;;;;;24.33;90.81;95959.94;10533037;28;1828;-77
2023/09/29 15:06:47;;;;;;;;;;;;;;;24.09;87.52;95953.50;10518220;28;2033;-78
2023/09/29 15:11:50;;;;;;;;;;;;;;;24.05;88.34;95957.31;10522257;28;1902;-79
2023/09/29 15:16:53;;;;;;;;;;;;;;;24.03;90.32;95957.66;10530096;28;1880;-77
2023/09/29 15:21:56;;;;;;;;;;;;;;;24.16;87.64;95966.59;10524711;28;2027;-78
2023/09/29 15:26:58;;;;;;;;;;;;;;;24.02;90.01;95953.31;10529304;28;1901;-77
2023/09/29 15:32:01;;;;;;;;;;;;;;;23.81;94.53;95961.84;10528220;28;1986;-73
2023/09/29 15:37:03;;;;;;;;;;;;;;;23.73;94.53;95969.09;10511922;28;2052;-70
2023/09/29 15:42:06;;;;;;;;;;;;;;;23.66;95.75;95965.34;10507209;28;4701;-71
2023/09/29 15:47:09;;;;;;;;;;;;;;;23.78;95.53;95962.53;10516379;28;1899;-71
2023/09/29 15:52:13;;;;;;;;;;;;;;;23.87;96.39;95967.88;10501482;28;1953;-73
2023/09/29 15:57:15;;;;;;;;;;;;;;;23.87;97.20;95965.91;10510189;28;2658;-72
2023/09/29 16:02:18;;;;;;;;;;;;;;;23.73;98.75;95971.06;10511409;28;1856;-72
2023/09/29 16:07:28;;;;;;;;;;;;;;;23.68;99.28;95968.56;10521972;28;2034;-72
2023/09/29 16:12:31;;;;;;;;;;;;;;;23.48;100.00;95970.38;10522853;28;1906;-71
2023/09/29 16:17:33;;;;;;;;;;;;;;;23.30;100.00;95969.09;10518321;28;1881;-71
2023/09/29 16:22:36;;;;;;;;;;;;;;;23.10;100.00;95977.19;10515282;28;1861;-73
2023/09/29 16:27:38;;;;;;;;;;;;;;;22.97;100.00;95961.94;10520708;28;2040;-72
2023/09/29 16:32:41;;;;;;;;;;;;;;;22.81;100.00;95969.25;10524038;28;2044;-73
2023/09/29 16:37:44;;;;;;;;;;;;;;;22.77;100.00;95965.59;10521893;28;1915;-73
2023/09/29 16:42:46;;;;;;;;;;;;;;;22.59;100.00;95965.91;10530258;28;4610;-76
2023/09/29 16:47:49;;;;;;;;;;;;;;;22.48;100.00;95962.03;10531824;28;1897;-73
2023/09/29 16:52:51;;;;;;;;;;;;;;;22.34;100.00;95967.09;10533159;28;1963;-74
2023/09/29 16:57:54;;;;;;;;;;;;;;;22.25;100.00;95980.09;10529402;28;1900;-73
2023/09/29 17:02:56;;;;;;;;;;;;;;;22.08;100.00;95990.09;10530884;28;1938;-73
2023/09/29 17:07:59;;;;;;;;;;;;;;;21.94;100.00;95997.84;10527782;28;1826;-72
2023/09/29 17:13:01;;;;;;;;;;;;;;;21.82;100.00;95993.16;10527025;28;2130;-76
2023/09/29 17:18:04;;;;;;;;;;;;;;;21.67;100.00;95993.03;10533372;28;1719;-77
2023/09/29 17:23:06;;;;;;;;;;;;;;;21.50;100.00;96005.75;10533797;28;1558;-78
2023/09/29 17:28:09;;;;;;;;;;;;;;;21.38;100.00;96013.94;10535641;28;2767;-78
2023/09/29 17:33:11;;;;;;;;;;;;;;;21.13;100.00;96017.69;10528251;28;1981;-78
2023/09/29 17:38:14;;;;;;;;;;;;;;;21.28;100.00;96006.09;10528891;28;1820;-78
2023/09/29 17:43:17;;;;;;;;;;;;;;;21.09;100.00;96019.47;10528772;28;1847;-80
2023/09/29 17:48:19;;;;;;;;;;;;;;;20.84;100.00;96016.59;10521774;28;1562;-78
2023/09/29 17:53:42;;;;;;;;;;;;;;;20.69;100.00;96025.41;10523091;28;1975;-79
2023/09/29 17:58:46;;;;;;;;;;;;;;;20.66;100.00;96036.97;10532007;28;1690;-78
2023/09/29 18:03:49;;;;;;;;;;;;;;;20.61;100.00;96048.09;10531139;28;1706;-77
2023/09/29 18:08:52;;;;;;;;;;;;;;;20.57;100.00;96044.44;10528644;28;1745;-79
2023/09/29 18:13:56;;;;;;;;;;;;;;;20.59;100.00;96048.44;10526158;28;2649;-77
2023/09/29 18:18:59;;;;;;;;;;;;;;;20.73;100.00;96048.97;10524196;28;1927;-78
2023/09/29 18:24:03;;;;;;;;;;;;;;;20.75;100.00;96056.88;10515160;28;1896;-74
2023/09/29 18:29:05;;;;;;;;;;;;;;;20.82;100.00;96053.59;10525201;28;1601;-76
2023/09/29 18:34:11;;;;;;;;;;;;;;;20.72;100.00;96063.78;10524755;28;1981;-77
2023/09/29 18:39:15;;;;;;;;;;;;;;;20.50;100.00;96073.06;10812631;22;2418;-72
2023/09/29 18:44:20;;;;;;;;;;;;;;;20.55;100.00;96074.81;10331359;28;4666;-73
2023/09/29 18:49:22;;;;;;;;;;;;;;;20.58;100.00;96068.69;10346653;28;2382;-74
2023/09/29 18:54:25;;;;;;;;;;;;;;;20.38;100.00;96085.78;10348195;28;1985;-73
2023/09/29 18:59:27;;;;;;;;;;;;;;;20.46;100.00;96093.97;10360012;28;1913;-73
2023/09/29 19:04:30;;;;;;;;;;;;;;;20.39;100.00;96099.13;10352332;28;1525;-75
2023/09/29 19:09:32;;;;;;;;;;;;;;;20.46;100.00;96113.06;10355318;28;1549;-76
2023/09/29 19:14:35;;;;;;;;;;;;;;;20.55;100.00;96120.41;10352753;28;1969;-77
2023/09/29 19:19:43;;;;;;;;;;;;;;;20.65;100.00;96141.91;10357471;28;1641;-74
2023/09/29 19:24:46;;;;;;;;;;;;;;;20.69;100.00;96151.84;10350756;28;1514;-78
2023/09/29 19:29:49;;;;;;;;;;;;;;;20.70;100.00;96152.66;10351874;28;2412;-72
2023/09/29 19:34:51;;;;;;;;;;;;;;;20.58;100.00;96167.00;10352176;28;1910;-75
2023/09/29 19:39:54;;;;;;;;;;;;;;;20.66;100.00;96170.81;10363224;28;1525;-76
2023/09/29 19:44:57;;;;;;;;;;;;;;;20.64;100.00;96175.81;10355901;28;5036;-73
2023/09/29 19:49:59;;;;;;;;;;;;;;;20.45;100.00;96184.41;10356735;28;1842;-74
2023/09/29 19:55:02;;;;;;;;;;;;;;;20.24;100.00;96189.75;10356142;28;1919;-75
2023/09/29 20:00:08;;;;;;;;;;;;;;;20.07;100.00;96189.78;10351899;28;1920;-73
2023/09/29 20:05:14;;;;;;;;;;;;;;;19.88;100.00;96203.78;10352112;28;1430;-73
2023/09/29 20:10:16;;;;;;;;;;;;;;;19.74;100.00;96209.41;10348719;28;1472;-73
2023/09/29 20:15:20;;;;;;;;;;;;;;;19.63;100.00;96217.09;10357310;28;2498;-72
2023/09/29 20:20:22;;;;;;;;;;;;;;;19.47;100.00;96232.31;10357532;28;1985;-72
2023/09/29 20:25:25;;;;;;;;;;;;;;;19.37;100.00;96246.22;10361034;28;1479;-72
2023/09/29 20:30:27;;;;;;;;;;;;;;;19.36;100.00;96247.34;10354398;28;1899;-72
2023/09/29 20:35:30;;;;;;;;;;;;;;;19.19;100.00;96248.13;10353018;28;1918;-73
2023/09/29 20:40:32;;;;;;;;;;;;;;;19.15;100.00;96252.59;10359809;28;4690;-72
2023/09/29 20:45:35;;;;;;;;;;;;;;;19.07;100.00;96250.63;10350414;28;1926;-73
2023/09/29 20:50:37;;;;;;;;;;;;;;;18.98;100.00;96268.91;10350023;28;1889;-73
2023/09/29 20:55:40;;;;;;;;;;;;;;;18.92;100.00;96273.69;10360399;28;1910;-74
2023/09/29 21:00:42;;;;;;;;;;;;;;;18.92;100.00;96287.28;10348552;28;2370;-73
2023/09/29 21:05:45;;;;;;;;;;;;;;;18.91;100.00;96307.50;10338691;28;1814;-73
2023/09/29 21:10:47;;;;;;;;;;;;;;;18.92;100.00;96302.84;10336560;28;1922;-73
2023/09/29 21:15:50;;;;;;;;;;;;;;;18.89;100.00;96307.81;10346872;28;1991;-74
2023/09/29 21:20:53;;;;;;;;;;;;;;;18.85;100.00;96312.25;10353528;28;1952;-73
2023/09/29 21:25:56;;;;;;;;;;;;;;;18.78;100.00;96308.38;10351284;28;1814;-73
2023/09/29 21:30:58;;;;;;;;;;;;;;;18.68;100.00;96314.09;10351165;28;1913;-74
2023/09/29 21:36:01;;;;;;;;;;;;;;;18.67;100.00;96313.28;10349650;28;2010;-74
2023/09/29 21:41:03;;;;;;;;;;;;;;;18.67;100.00;96321.47;10351949;28;1950;-74
2023/09/29 21:46:06;;;;;;;;;;;;;;;18.64;100.00;96322.06;10349030;28;2431;-74
2023/09/29 21:51:09;;;;;;;;;;;;;;;18.64;100.00;96328.31;10352056;28;1877;-73
2023/09/29 21:56:11;;;;;;;;;;;;;;;18.63;100.00;96331.31;10353094;28;1934;-74
2023/09/29 22:01:14;;;;;;;;;;;;;;;18.57;100.00;96329.84;10338879;28;1906;-75
2023/09/29 22:06:17;;;;;;;;;;;;;;;18.42;100.00;96332.97;10350213;28;1944;-73
2023/09/29 22:11:20;;;;;;;;;;;;;;;18.35;100.00;96345.09;10345302;28;1877;-75
2023/09/29 22:16:22;;;;;;;;;;;;;;;18.32;100.00;96350.31;10357935;28;2040;-73
2023/09/29 22:21:25;;;;;;;;;;;;;;;18.30;100.00;96364.25;10419445;28;2033;-74
2023/09/29 22:26:28;;;;;;;;;;;;;;;18.31;100.00;96374.00;10364807;28;1906;-72
2023/09/29 22:31:30;;;;;;;;;;;;;;;18.23;100.00;96366.59;10352647;28;2545;-73
2023/09/29 22:36:33;;;;;;;;;;;;;;;18.10;100.00;96375.59;10352661;28;1897;-74
2023/09/29 22:41:35;;;;;;;;;;;;;;;18.04;100.00;96376.84;10359194;28;4519;-74
2023/09/29 22:46:38;;;;;;;;;;;;;;;17.86;100.00;96364.19;10353781;28;1925;-73
2023/09/29 22:51:40;;;;;;;;;;;;;;;17.69;100.00;96367.53;10353703;28;1994;-73
2023/09/29 22:56:43;;;;;;;;;;;;;;;17.50;100.00;96367.66;10348649;28;2012;-75
2023/09/29 23:01:46;;;;;;;;;;;;;;;17.34;100.00;96366.31;10349819;28;2164;-75
2023/09/29 23:06:50;;;;;;;;;;;;;;;17.15;100.00;96366.41;10355234;28;2121;-75
2023/09/29 23:11:53;;;;;;;;;;;;;;;17.02;100.00;96370.72;10354275;28;1975;-77
2023/09/29 23:16:56;;;;;;;;;;;;;;;16.92;100.00;96368.19;10352178;28;2450;-75
2023/09/29 23:21:58;;;;;;;;;;;;;;;16.81;100.00;96380.38;10352893;28;1869;-73
2023/09/29 23:27:02;;;;;;;;;;;;;;;16.75;100.00;96390.50;10348137;28;1834;-73
2023/09/29 23:32:04;;;;;;;;;;;;;;;16.63;100.00;96396.34;10339258;28;1910;-75
2023/09/29 23:37:06;;;;;;;;;;;;;;;16.54;100.00;96413.59;10338248;28;1903;-75
2023/09/29 23:42:10;;;;;;;;;;;;;;;16.46;100.00;96417.81;10351104;28;4562;-73
2023/09/29 23:47:13;;;;;;;;;;;;;;;16.40;100.00;96425.22;10351761;28;2122;-73
2023/09/29 23:52:16;;;;;;;;;;;;;;;16.36;100.00;96426.13;10351572;28;1970;-74
2023/09/29 23:57:20;;;;;;;;;;;;;;;16.24;100.00;96429.25;10355282;28;1941;-73
